sensor_id;sensor_type;location;lat;lon;timestamp;pressure;altitude;pressure_sealevel;temperature;humidity
80853;BME280;70270;43.434;28.338;2023-10-08T00:01:53;100179.72;;;19.30;35.68
80853;BME280;70270;43.434;28.338;2023-10-08T00:04:39;100177.94;;;19.19;35.65
80853;BME280;70270;43.434;28.338;2023-10-08T00:07:24;100167.16;;;19.12;35.62
80853;BME280;70270;43.434;28.338;2023-10-08T00:10:09;100175.38;;;19.12;36.23
80853;BME280;70270;43.434;28.338;2023-10-08T00:12:57;100184.84;;;19.00;36.99
80853;BME280;70270;43.434;28.338;2023-10-08T00:15:43;100163.06;;;18.93;36.98
80853;BME280;70270;43.434;28.338;2023-10-08T00:18:38;100146.69;;;18.82;36.89
80853;BME280;70270;43.434;28.338;2023-10-08T00:21:25;100119.03;;;18.66;36.31
80853;BME280;70270;43.434;28.338;2023-10-08T00:24:15;100131.34;;;18.86;35.93
80853;BME280;70270;43.434;28.338;2023-10-08T00:27:00;100139.66;;;18.91;35.90
80853;BME280;70270;43.434;28.338;2023-10-08T00:29:44;100143.56;;;18.95;35.65
80853;BME280;70270;43.434;28.338;2023-10-08T00:32:29;100131.44;;;18.91;35.84
80853;BME280;70270;43.434;28.338;2023-10-08T00:35:15;100135.19;;;19.06;35.60
80853;BME280;70270;43.434;28.338;2023-10-08T00:38:08;100119.47;;;19.02;35.33
80853;BME280;70270;43.434;28.338;2023-10-08T00:41:00;100132.59;;;18.95;35.60
80853;BME280;70270;43.434;28.338;2023-10-08T00:43:44;100101.38;;;19.01;35.45
80853;BME280;70270;43.434;28.338;2023-10-08T00:46:29;100119.63;;;19.12;35.57
80853;BME280;70270;43.434;28.338;2023-10-08T00:49:26;100117.84;;;19.01;35.88
80853;BME280;70270;43.434;28.338;2023-10-08T00:52:39;100078.44;;;18.68;36.20
80853;BME280;70270;43.434;28.338;2023-10-08T00:55:41;100114.44;;;18.94;36.71
80853;BME280;70270;43.434;28.338;2023-10-08T00:58:30;100114.31;;;18.84;36.81
80853;BME280;70270;43.434;28.338;2023-10-08T01:01:18;100107.16;;;18.83;37.10
80853;BME280;70270;43.434;28.338;2023-10-08T01:04:05;100090.56;;;18.73;37.24
80853;BME280;70270;43.434;28.338;2023-10-08T01:06:57;99974.94;;;18.04;37.27
80853;BME280;70270;43.434;28.338;2023-10-08T01:10:00;100017.81;;;18.32;37.44
80853;BME280;70270;43.434;28.338;2023-10-08T01:12:50;100093.72;;;18.81;37.08
80853;BME280;70270;43.434;28.338;2023-10-08T01:15:43;100102.81;;;18.87;37.21
80853;BME280;70270;43.434;28.338;2023-10-08T01:18:29;100054.09;;;18.55;37.86
80853;BME280;70270;43.434;28.338;2023-10-08T01:21:17;100074.34;;;18.71;37.95
80853;BME280;70270;43.434;28.338;2023-10-08T01:24:16;100073.91;;;18.79;38.18
80853;BME280;70270;43.434;28.338;2023-10-08T01:27:01;100043.31;;;18.70;38.14
80853;BME280;70270;43.434;28.338;2023-10-08T01:29:52;100079.84;;;18.71;38.73
80853;BME280;70270;43.434;28.338;2023-10-08T01:32:37;100063.22;;;18.83;38.49
80853;BME280;70270;43.434;28.338;2023-10-08T01:35:21;100064.50;;;18.97;38.55
80853;BME280;70270;43.434;28.338;2023-10-08T01:38:08;99959.25;;;18.43;38.33
80853;BME280;70270;43.434;28.338;2023-10-08T01:40:57;100002.66;;;18.67;39.01
80853;BME280;70270;43.434;28.338;2023-10-08T01:43:48;100060.81;;;18.86;40.04
80853;BME280;70270;43.434;28.338;2023-10-08T01:46:34;100055.97;;;18.72;41.18
80853;BME280;70270;43.434;28.338;2023-10-08T01:49:19;99943.56;;;18.16;41.16
80853;BME280;70270;43.434;28.338;2023-10-08T01:52:06;100039.09;;;18.63;41.58
80853;BME280;70270;43.434;28.338;2023-10-08T01:55:01;100038.97;;;18.75;41.34
80853;BME280;70270;43.434;28.338;2023-10-08T01:57:48;99965.00;;;18.19;41.73
80853;BME280;70270;43.434;28.338;2023-10-08T02:00:33;100035.72;;;18.78;41.57
80853;BME280;70270;43.434;28.338;2023-10-08T02:03:18;100035.91;;;18.93;41.26
80853;BME280;70270;43.434;28.338;2023-10-08T02:06:03;100039.81;;;18.75;41.62
80853;BME280;70270;43.434;28.338;2023-10-08T02:08:50;100021.50;;;18.81;41.63
80853;BME280;70270;43.434;28.338;2023-10-08T02:14:27;100002.22;;;18.76;42.28
80853;BME280;70270;43.434;28.338;2023-10-08T02:17:15;100010.63;;;18.47;42.35
80853;BME280;70270;43.434;28.338;2023-10-08T02:20:01;99971.81;;;18.17;42.66
80853;BME280;70270;43.434;28.338;2023-10-08T02:22:49;100014.72;;;18.45;42.83
80853;BME280;70270;43.434;28.338;2023-10-08T02:25:33;100001.34;;;18.32;43.39
80853;BME280;70270;43.434;28.338;2023-10-08T02:28:21;99882.16;;;17.57;44.12
80853;BME280;70270;43.434;28.338;2023-10-08T02:31:08;100011.69;;;18.24;44.47
80853;BME280;70270;43.434;28.338;2023-10-08T02:33:53;100009.97;;;18.40;44.02
80853;BME280;70270;43.434;28.338;2023-10-08T02:36:38;100008.31;;;18.39;43.43
80853;BME280;70270;43.434;28.338;2023-10-08T02:39:27;99918.41;;;17.81;42.07
80853;BME280;70270;43.434;28.338;2023-10-08T02:42:12;100015.38;;;18.74;40.70
80853;BME280;70270;43.434;28.338;2023-10-08T02:44:58;100012.97;;;18.82;39.57
80853;BME280;70270;43.434;28.338;2023-10-08T02:47:45;100012.56;;;18.68;39.50
80853;BME280;70270;43.434;28.338;2023-10-08T02:50:30;100014.88;;;18.82;39.43
80853;BME280;70270;43.434;28.338;2023-10-08T02:53:16;100009.38;;;18.77;39.25
80853;BME280;70270;43.434;28.338;2023-10-08T02:56:05;100010.44;;;18.54;39.87
80853;BME280;70270;43.434;28.338;2023-10-08T02:58:56;100003.31;;;18.53;39.95
80853;BME280;70270;43.434;28.338;2023-10-08T03:01:41;100018.44;;;18.17;40.65
80853;BME280;70270;43.434;28.338;2023-10-08T03:04:26;100014.59;;;18.18;41.05
80853;BME280;70270;43.434;28.338;2023-10-08T03:07:15;99906.13;;;17.50;41.14
80853;BME280;70270;43.434;28.338;2023-10-08T03:10:07;100005.22;;;18.14;41.05
80853;BME280;70270;43.434;28.338;2023-10-08T03:13:03;99898.75;;;17.34;42.04
80853;BME280;70270;43.434;28.338;2023-10-08T03:15:52;100002.19;;;17.94;41.79
80853;BME280;70270;43.434;28.338;2023-10-08T03:18:45;99906.53;;;17.75;41.42
80853;BME280;70270;43.434;28.338;2023-10-08T03:21:38;99990.31;;;18.48;40.89
80853;BME280;70270;43.434;28.338;2023-10-08T03:24:23;100001.34;;;18.32;41.05
80853;BME280;70270;43.434;28.338;2023-10-08T03:27:14;99982.34;;;18.25;41.13
80853;BME280;70270;43.434;28.338;2023-10-08T03:30:05;99978.34;;;18.54;40.84
80853;BME280;70270;43.434;28.338;2023-10-08T03:32:50;99965.56;;;18.43;40.92
80853;BME280;70270;43.434;28.338;2023-10-08T03:35:42;99913.66;;;17.93;41.01
80853;BME280;70270;43.434;28.338;2023-10-08T03:38:27;99974.81;;;18.15;41.30
80853;BME280;70270;43.434;28.338;2023-10-08T03:41:12;99912.97;;;17.86;41.13
80853;BME280;70270;43.434;28.338;2023-10-08T03:44:00;99980.66;;;18.02;41.46
80853;BME280;70270;43.434;28.338;2023-10-08T03:46:56;99968.41;;;18.10;41.42
80853;BME280;70270;43.434;28.338;2023-10-08T03:49:41;99971.44;;;18.30;40.83
80853;BME280;70270;43.434;28.338;2023-10-08T03:52:30;99967.97;;;18.18;41.02
80853;BME280;70270;43.434;28.338;2023-10-08T03:55:14;99937.50;;;18.14;40.95
80853;BME280;70270;43.434;28.338;2023-10-08T03:58:10;99963.03;;;18.37;40.73
80853;BME280;70270;43.434;28.338;2023-10-08T04:00:56;99948.06;;;18.06;41.20
80853;BME280;70270;43.434;28.338;2023-10-08T04:03:53;99947.06;;;18.12;40.97
80853;BME280;70270;43.434;28.338;2023-10-08T04:06:37;99931.75;;;17.94;41.46
80853;BME280;70270;43.434;28.338;2023-10-08T04:09:31;99934.94;;;18.08;41.37
80853;BME280;70270;43.434;28.338;2023-10-08T04:12:16;99947.94;;;17.96;41.57
80853;BME280;70270;43.434;28.338;2023-10-08T04:15:03;99931.41;;;17.91;41.51
80853;BME280;70270;43.434;28.338;2023-10-08T04:17:56;99948.06;;;18.06;41.28
80853;BME280;70270;43.434;28.338;2023-10-08T04:20:41;99942.34;;;18.29;42.15
80853;BME280;70270;43.434;28.338;2023-10-08T04:23:45;99941.72;;;18.65;42.56
80853;BME280;70270;43.434;28.338;2023-10-08T04:26:31;99643.44;;;16.83;43.18
80853;BME280;70270;43.434;28.338;2023-10-08T04:29:16;99923.06;;;18.67;43.11
80853;BME280;70270;43.434;28.338;2023-10-08T04:32:06;99941.75;;;18.70;40.98
80853;BME280;70270;43.434;28.338;2023-10-08T04:34:59;99923.31;;;18.93;41.81
80853;BME280;70270;43.434;28.338;2023-10-08T04:37:44;99925.53;;;18.96;40.01
80853;BME280;70270;43.434;28.338;2023-10-08T04:40:36;99941.91;;;19.12;41.14
80853;BME280;70270;43.434;28.338;2023-10-08T04:43:32;99931.44;;;19.09;39.61
80853;BME280;70270;43.434;28.338;2023-10-08T04:46:17;99918.78;;;19.08;39.40
80853;BME280;70270;43.434;28.338;2023-10-08T04:49:19;99829.97;;;18.66;39.87
80853;BME280;70270;43.434;28.338;2023-10-08T04:52:13;99925.72;;;19.16;41.48
80853;BME280;70270;43.434;28.338;2023-10-08T04:55:00;99916.78;;;19.31;40.59
80853;BME280;70270;43.434;28.338;2023-10-08T04:57:56;99919.75;;;19.24;40.10
80853;BME280;70270;43.434;28.338;2023-10-08T05:00:42;99918.72;;;19.35;40.55
80853;BME280;70270;43.434;28.338;2023-10-08T05:03:38;99909.41;;;19.36;40.57
80853;BME280;70270;43.434;28.338;2023-10-08T05:06:34;99946.63;;;19.17;38.88
80853;BME280;70270;43.434;28.338;2023-10-08T05:09:19;99938.56;;;19.37;38.39
80853;BME280;70270;43.434;28.338;2023-10-08T05:12:06;99945.59;;;19.28;38.83
80853;BME280;70270;43.434;28.338;2023-10-08T05:15:12;99969.44;;;19.23;39.11
80853;BME280;70270;43.434;28.338;2023-10-08T05:17:57;99945.69;;;19.38;38.80
80853;BME280;70270;43.434;28.338;2023-10-08T05:20:42;99910.31;;;19.47;38.75
80853;BME280;70270;43.434;28.338;2023-10-08T05:23:33;99898.66;;;19.30;38.59
80853;BME280;70270;43.434;28.338;2023-10-08T05:26:40;99926.63;;;19.53;38.60
80853;BME280;70270;43.434;28.338;2023-10-08T05:29:33;99925.13;;;19.78;38.49
80853;BME280;70270;43.434;28.338;2023-10-08T05:32:36;99930.72;;;19.93;38.89
80853;BME280;70270;43.434;28.338;2023-10-08T05:35:44;99935.13;;;19.94;40.28
80853;BME280;70270;43.434;28.338;2023-10-08T05:38:31;99899.00;;;19.80;38.21
80853;BME280;70270;43.434;28.338;2023-10-08T05:41:22;99927.78;;;20.09;38.10
80853;BME280;70270;43.434;28.338;2023-10-08T05:44:15;99818.44;;;19.80;38.56
80853;BME280;70270;43.434;28.338;2023-10-08T05:47:08;99924.97;;;20.72;38.29
80853;BME280;70270;43.434;28.338;2023-10-08T05:50:11;99904.59;;;20.58;38.53
80853;BME280;70270;43.434;28.338;2023-10-08T05:53:01;99904.63;;;20.78;37.64
80853;BME280;70270;43.434;28.338;2023-10-08T05:56:05;99876.81;;;20.84;37.18
80853;BME280;70270;43.434;28.338;2023-10-08T05:59:00;99897.75;;;21.11;36.76
80853;BME280;70270;43.434;28.338;2023-10-08T06:01:58;99884.81;;;21.06;37.13
80853;BME280;70270;43.434;28.338;2023-10-08T06:04:50;99894.44;;;20.98;36.06
80853;BME280;70270;43.434;28.338;2023-10-08T06:07:54;99891.94;;;20.87;36.53
80853;BME280;70270;43.434;28.338;2023-10-08T06:10:39;99892.22;;;20.70;37.23
80853;BME280;70270;43.434;28.338;2023-10-08T06:13:23;99873.78;;;20.86;38.43
80853;BME280;70270;43.434;28.338;2023-10-08T06:16:14;99873.25;;;21.09;37.04
80853;BME280;70270;43.434;28.338;2023-10-08T06:19:15;99796.09;;;20.59;35.47
80853;BME280;70270;43.434;28.338;2023-10-08T06:21:59;99890.88;;;21.43;34.53
80853;BME280;70270;43.434;28.338;2023-10-08T06:24:48;99806.56;;;20.51;34.99
80853;BME280;70270;43.434;28.338;2023-10-08T06:27:32;99887.56;;;21.11;35.56
80853;BME280;70270;43.434;28.338;2023-10-08T06:30:17;99887.03;;;21.24;36.13
80853;BME280;70270;43.434;28.338;2023-10-08T06:33:02;99787.84;;;20.79;36.16
80853;BME280;70270;43.434;28.338;2023-10-08T06:35:48;99876.28;;;21.28;36.63
80853;BME280;70270;43.434;28.338;2023-10-08T06:38:57;99871.84;;;21.52;38.06
80853;BME280;70270;43.434;28.338;2023-10-08T06:41:43;99853.38;;;21.58;37.59
80853;BME280;70270;43.434;28.338;2023-10-08T06:44:28;99868.81;;;21.43;37.99
80853;BME280;70270;43.434;28.338;2023-10-08T06:47:13;99862.63;;;22.02;36.53
80853;BME280;70270;43.434;28.338;2023-10-08T06:50:00;99875.78;;;22.25;35.15
80853;BME280;70270;43.434;28.338;2023-10-08T06:52:48;99902.13;;;22.52;37.00
80853;BME280;70270;43.434;28.338;2023-10-08T06:55:34;99888.78;;;22.64;36.12
80853;BME280;70270;43.434;28.338;2023-10-08T06:58:23;99879.53;;;22.89;33.86
80853;BME280;70270;43.434;28.338;2023-10-08T07:01:08;99873.16;;;22.93;32.77
80853;BME280;70270;43.434;28.338;2023-10-08T07:03:54;99884.44;;;23.02;32.88
80853;BME280;70270;43.434;28.338;2023-10-08T07:06:47;99890.25;;;23.00;33.03
80853;BME280;70270;43.434;28.338;2023-10-08T07:09:33;99886.88;;;23.03;32.05
80853;BME280;70270;43.434;28.338;2023-10-08T07:12:20;99759.94;;;22.10;32.70
80853;BME280;70270;43.434;28.338;2023-10-08T07:15:09;99894.00;;;23.14;31.98
80853;BME280;70270;43.434;28.338;2023-10-08T07:17:56;99754.75;;;22.43;32.61
80853;BME280;70270;43.434;28.338;2023-10-08T07:20:45;99801.94;;;22.85;32.63
80853;BME280;70270;43.434;28.338;2023-10-08T07:23:30;99774.38;;;22.75;31.74
80853;BME280;70270;43.434;28.338;2023-10-08T07:26:18;99872.50;;;23.69;31.74
80853;BME280;70270;43.434;28.338;2023-10-08T07:29:08;99871.72;;;23.35;33.52
80853;BME280;70270;43.434;28.338;2023-10-08T07:31:52;99858.09;;;23.43;33.78
80853;BME280;70270;43.434;28.338;2023-10-08T07:34:37;99884.13;;;23.03;34.20
80853;BME280;70270;43.434;28.338;2023-10-08T07:37:23;99824.81;;;23.19;32.62
80853;BME280;70270;43.434;28.338;2023-10-08T07:40:07;99869.72;;;23.69;31.16
80853;BME280;70270;43.434;28.338;2023-10-08T07:42:54;99843.56;;;23.80;31.46
80853;BME280;70270;43.434;28.338;2023-10-08T07:45:40;99742.75;;;23.44;30.74
80853;BME280;70270;43.434;28.338;2023-10-08T07:48:30;99848.66;;;24.20;29.96
80853;BME280;70270;43.434;28.338;2023-10-08T07:51:14;99840.09;;;23.93;30.93
80853;BME280;70270;43.434;28.338;2023-10-08T07:53:59;99830.38;;;24.19;30.85
80853;BME280;70270;43.434;28.338;2023-10-08T07:56:43;99838.09;;;24.60;30.17
80853;BME280;70270;43.434;28.338;2023-10-08T07:59:28;99842.16;;;24.30;30.32
80853;BME280;70270;43.434;28.338;2023-10-08T08:02:16;99834.06;;;24.34;29.87
80853;BME280;70270;43.434;28.338;2023-10-08T08:05:01;99830.19;;;24.35;30.08
80853;BME280;70270;43.434;28.338;2023-10-08T08:07:47;99819.19;;;24.67;30.24
80853;BME280;70270;43.434;28.338;2023-10-08T08:10:34;99832.16;;;25.04;29.74
80853;BME280;70270;43.434;28.338;2023-10-08T08:13:22;99818.00;;;25.05;29.58
80853;BME280;70270;43.434;28.338;2023-10-08T08:16:06;99814.88;;;25.26;29.10
80853;BME280;70270;43.434;28.338;2023-10-08T08:19:00;99766.06;;;25.25;28.48
80853;BME280;70270;43.434;28.338;2023-10-08T08:21:45;99772.19;;;25.54;28.55
80853;BME280;70270;43.434;28.338;2023-10-08T08:24:29;99782.66;;;25.84;27.64
80853;BME280;70270;43.434;28.338;2023-10-08T08:27:20;99776.06;;;26.07;27.66
80853;BME280;70270;43.434;28.338;2023-10-08T08:30:17;99783.88;;;26.55;27.11
80853;BME280;70270;43.434;28.338;2023-10-08T08:33:02;99787.06;;;26.84;26.70
80853;BME280;70270;43.434;28.338;2023-10-08T08:36:00;99782.25;;;26.98;26.43
80853;BME280;70270;43.434;28.338;2023-10-08T08:38:45;99708.50;;;26.57;26.68
80853;BME280;70270;43.434;28.338;2023-10-08T08:41:31;99790.41;;;26.95;26.23
80853;BME280;70270;43.434;28.338;2023-10-08T08:44:20;99695.44;;;26.57;26.04
80853;BME280;70270;43.434;28.338;2023-10-08T08:47:13;99775.69;;;27.25;25.93
80853;BME280;70270;43.434;28.338;2023-10-08T08:50:09;99755.38;;;27.47;25.83
80853;BME280;70270;43.434;28.338;2023-10-08T08:52:54;99764.94;;;27.63;25.68
80853;BME280;70270;43.434;28.338;2023-10-08T08:55:38;99740.72;;;27.72;25.29
80853;BME280;70270;43.434;28.338;2023-10-08T08:58:23;99762.34;;;27.75;25.06
80853;BME280;70270;43.434;28.338;2023-10-08T09:01:12;99737.16;;;27.80;24.00
80853;BME280;70270;43.434;28.338;2023-10-08T09:04:04;99758.84;;;28.09;24.16
80853;BME280;70270;43.434;28.338;2023-10-08T09:06:52;99747.66;;;27.92;23.97
80853;BME280;70270;43.434;28.338;2023-10-08T09:09:39;99748.84;;;28.17;23.75
80853;BME280;70270;43.434;28.338;2023-10-08T09:12:23;99729.84;;;28.10;23.58
80853;BME280;70270;43.434;28.338;2023-10-08T09:15:08;99740.34;;;28.39;23.60
80853;BME280;70270;43.434;28.338;2023-10-08T09:17:57;99727.22;;;28.14;23.62
80853;BME280;70270;43.434;28.338;2023-10-08T09:20:44;99735.19;;;27.89;23.79
80853;BME280;70270;43.434;28.338;2023-10-08T09:23:29;99744.06;;;28.00;23.72
80853;BME280;70270;43.434;28.338;2023-10-08T09:26:14;99730.00;;;28.14;23.89
80853;BME280;70270;43.434;28.338;2023-10-08T09:29:00;99723.44;;;28.10;23.27
80853;BME280;70270;43.434;28.338;2023-10-08T09:31:51;99737.69;;;28.17;23.10
80853;BME280;70270;43.434;28.338;2023-10-08T09:34:40;99709.91;;;27.60;23.45
80853;BME280;70270;43.434;28.338;2023-10-08T09:37:24;99748.88;;;27.60;23.90
80853;BME280;70270;43.434;28.338;2023-10-08T09:40:13;99730.22;;;27.69;23.53
80853;BME280;70270;43.434;28.338;2023-10-08T09:43:05;99717.81;;;27.75;23.81
80853;BME280;70270;43.434;28.338;2023-10-08T09:46:21;99638.91;;;27.40;23.88
80853;BME280;70270;43.434;28.338;2023-10-08T09:49:13;99643.72;;;27.57;24.19
80853;BME280;70270;43.434;28.338;2023-10-08T09:52:06;99715.56;;;28.55;23.32
80853;BME280;70270;43.434;28.338;2023-10-08T09:54:59;99715.06;;;28.53;23.34
80853;BME280;70270;43.434;28.338;2023-10-08T09:57:47;99686.22;;;28.49;23.66
80853;BME280;70270;43.434;28.338;2023-10-08T10:00:32;99693.94;;;28.60;23.37
80853;BME280;70270;43.434;28.338;2023-10-08T10:03:18;99697.22;;;28.45;23.64
80853;BME280;70270;43.434;28.338;2023-10-08T10:06:03;99689.97;;;28.61;23.63
80853;BME280;70270;43.434;28.338;2023-10-08T10:08:55;99672.56;;;28.81;23.81
80853;BME280;70270;43.434;28.338;2023-10-08T10:11:51;99672.25;;;29.21;23.20
80853;BME280;70270;43.434;28.338;2023-10-08T10:14:44;99672.34;;;29.71;23.31
80853;BME280;70270;43.434;28.338;2023-10-08T10:17:29;99666.84;;;29.83;23.25
80853;BME280;70270;43.434;28.338;2023-10-08T10:20:13;99663.59;;;30.02;22.94
80853;BME280;70270;43.434;28.338;2023-10-08T10:22:58;99662.88;;;29.93;23.07
80853;BME280;70270;43.434;28.338;2023-10-08T10:25:42;99653.13;;;29.69;22.62
80853;BME280;70270;43.434;28.338;2023-10-08T10:28:28;99636.53;;;29.73;22.96
80853;BME280;70270;43.434;28.338;2023-10-08T10:31:20;99640.84;;;29.91;22.76
80853;BME280;70270;43.434;28.338;2023-10-08T10:34:08;99556.88;;;29.46;22.82
80853;BME280;70270;43.434;28.338;2023-10-08T10:36:55;99614.69;;;29.46;23.09
80853;BME280;70270;43.434;28.338;2023-10-08T10:39:50;99636.88;;;29.42;22.98
80853;BME280;70270;43.434;28.338;2023-10-08T10:42:37;99630.13;;;29.72;22.93
80853;BME280;70270;43.434;28.338;2023-10-08T10:45:29;99619.75;;;29.52;22.26
80853;BME280;70270;43.434;28.338;2023-10-08T10:48:28;99632.16;;;29.84;22.31
80853;BME280;70270;43.434;28.338;2023-10-08T10:51:19;99623.44;;;30.06;21.81
80853;BME280;70270;43.434;28.338;2023-10-08T10:54:03;99616.22;;;29.85;22.30
80853;BME280;70270;43.434;28.338;2023-10-08T10:57:06;99612.28;;;30.39;21.38
80853;BME280;70270;43.434;28.338;2023-10-08T11:00:04;99607.50;;;30.60;21.08
80853;BME280;70270;43.434;28.338;2023-10-08T11:03:08;99587.38;;;30.13;21.52
80853;BME280;70270;43.434;28.338;2023-10-08T11:06:07;99524.50;;;29.87;21.57
80853;BME280;70270;43.434;28.338;2023-10-08T11:08:59;99603.00;;;30.47;21.27
80853;BME280;70270;43.434;28.338;2023-10-08T11:11:43;99448.88;;;29.71;20.59
80853;BME280;70270;43.434;28.338;2023-10-08T11:14:28;99580.50;;;30.11;21.18
80853;BME280;70270;43.434;28.338;2023-10-08T11:17:14;99609.00;;;30.04;21.59
80853;BME280;70270;43.434;28.338;2023-10-08T11:20:00;99596.75;;;29.97;21.85
80853;BME280;70270;43.434;28.338;2023-10-08T11:22:51;99516.88;;;29.34;21.91
80853;BME280;70270;43.434;28.338;2023-10-08T11:25:38;99589.31;;;30.01;21.71
80853;BME280;70270;43.434;28.338;2023-10-08T11:28:28;99588.13;;;30.02;22.12
80853;BME280;70270;43.434;28.338;2023-10-08T11:31:15;99578.47;;;29.99;22.59
80853;BME280;70270;43.434;28.338;2023-10-08T11:34:03;99584.03;;;30.20;22.06
80853;BME280;70270;43.434;28.338;2023-10-08T11:36:57;99575.56;;;29.96;21.84
80853;BME280;70270;43.434;28.338;2023-10-08T11:39:41;99571.72;;;30.33;21.45
80853;BME280;70270;43.434;28.338;2023-10-08T11:42:29;99573.66;;;30.65;21.09
80853;BME280;70270;43.434;28.338;2023-10-08T11:45:16;99480.34;;;30.01;21.44
80853;BME280;70270;43.434;28.338;2023-10-08T11:48:10;99510.69;;;30.35;21.29
80853;BME280;70270;43.434;28.338;2023-10-08T11:50:57;99568.31;;;30.48;21.63
80853;BME280;70270;43.434;28.338;2023-10-08T11:53:45;99473.47;;;29.77;21.79
80853;BME280;70270;43.434;28.338;2023-10-08T11:56:30;99550.97;;;30.34;21.52
80853;BME280;70270;43.434;28.338;2023-10-08T11:59:16;99467.81;;;29.65;21.71
80853;BME280;70270;43.434;28.338;2023-10-08T12:02:02;99514.81;;;30.05;22.34
80853;BME280;70270;43.434;28.338;2023-10-08T12:04:47;99495.09;;;29.68;22.58
80853;BME280;70270;43.434;28.338;2023-10-08T12:07:31;99568.56;;;30.02;22.57
80853;BME280;70270;43.434;28.338;2023-10-08T12:10:16;99540.88;;;29.97;22.61
80853;BME280;70270;43.434;28.338;2023-10-08T12:13:06;99521.72;;;29.87;22.40
80853;BME280;70270;43.434;28.338;2023-10-08T12:15:52;99549.09;;;30.26;22.71
80853;BME280;70270;43.434;28.338;2023-10-08T12:18:41;99564.50;;;30.32;22.15
80853;BME280;70270;43.434;28.338;2023-10-08T12:21:28;99545.59;;;30.74;21.64
80853;BME280;70270;43.434;28.338;2023-10-08T12:24:15;99542.25;;;31.05;21.25
80853;BME280;70270;43.434;28.338;2023-10-08T12:27:01;99496.28;;;31.06;21.48
80853;BME280;70270;43.434;28.338;2023-10-08T12:29:47;99534.88;;;30.88;21.69
80853;BME280;70270;43.434;28.338;2023-10-08T12:32:31;99425.19;;;30.46;21.79
80853;BME280;70270;43.434;28.338;2023-10-08T12:35:16;99538.59;;;30.68;21.91
80853;BME280;70270;43.434;28.338;2023-10-08T12:38:00;99525.47;;;31.17;21.43
80853;BME280;70270;43.434;28.338;2023-10-08T12:40:45;99531.63;;;31.10;21.75
80853;BME280;70270;43.434;28.338;2023-10-08T12:43:36;99531.59;;;30.74;22.61
80853;BME280;70270;43.434;28.338;2023-10-08T12:46:22;99539.44;;;30.93;22.34
80853;BME280;70270;43.434;28.338;2023-10-08T12:49:09;99507.13;;;30.71;21.81
80853;BME280;70270;43.434;28.338;2023-10-08T12:51:54;99510.75;;;31.08;21.92
80853;BME280;70270;43.434;28.338;2023-10-08T12:54:38;99509.56;;;31.33;21.86
80853;BME280;70270;43.434;28.338;2023-10-08T12:57:30;99511.16;;;31.34;22.13
80853;BME280;70270;43.434;28.338;2023-10-08T13:00:18;99518.66;;;31.18;22.63
80853;BME280;70270;43.434;28.338;2023-10-08T13:03:10;99510.75;;;30.84;22.82
80853;BME280;70270;43.434;28.338;2023-10-08T13:06:10;99500.00;;;30.61;23.23
80853;BME280;70270;43.434;28.338;2023-10-08T13:08:59;99514.50;;;31.00;22.53
80853;BME280;70270;43.434;28.338;2023-10-08T13:11:44;99506.94;;;31.00;22.73
80853;BME280;70270;43.434;28.338;2023-10-08T13:14:30;99492.78;;;30.97;22.46
80853;BME280;70270;43.434;28.338;2023-10-08T13:17:14;99503.72;;;31.26;22.55
80853;BME280;70270;43.434;28.338;2023-10-08T13:19:59;99487.41;;;31.28;22.22
80853;BME280;70270;43.434;28.338;2023-10-08T13:22:43;99466.81;;;30.72;22.79
80853;BME280;70270;43.434;28.338;2023-10-08T13:25:27;99485.47;;;30.68;23.66
80853;BME280;70270;43.434;28.338;2023-10-08T13:28:14;99492.09;;;30.88;23.60
80853;BME280;70270;43.434;28.338;2023-10-08T13:31:00;99382.53;;;30.37;23.30
80853;BME280;70270;43.434;28.338;2023-10-08T13:33:45;99479.16;;;30.83;23.01
80853;BME280;70270;43.434;28.338;2023-10-08T13:36:33;99410.75;;;30.69;22.68
80853;BME280;70270;43.434;28.338;2023-10-08T13:39:17;99479.97;;;31.08;23.08
80853;BME280;70270;43.434;28.338;2023-10-08T13:42:06;99465.94;;;30.23;23.90
80853;BME280;70270;43.434;28.338;2023-10-08T13:44:50;99452.13;;;29.94;23.98
80853;BME280;70270;43.434;28.338;2023-10-08T13:47:35;99471.28;;;30.16;23.91
80853;BME280;70270;43.434;28.338;2023-10-08T13:50:24;99482.81;;;30.27;24.04
80853;BME280;70270;43.434;28.338;2023-10-08T13:53:08;99482.75;;;30.47;23.35
80853;BME280;70270;43.434;28.338;2023-10-08T13:55:53;99491.16;;;30.59;23.26
80853;BME280;70270;43.434;28.338;2023-10-08T13:58:40;99487.78;;;30.54;23.85
80853;BME280;70270;43.434;28.338;2023-10-08T14:01:33;99493.47;;;30.70;23.63
80853;BME280;70270;43.434;28.338;2023-10-08T14:04:19;99465.75;;;30.64;23.02
80853;BME280;70270;43.434;28.338;2023-10-08T14:07:04;99488.91;;;31.13;23.29
80853;BME280;70270;43.434;28.338;2023-10-08T14:09:48;99490.47;;;31.51;22.72
80853;BME280;70270;43.434;28.338;2023-10-08T14:12:34;99485.00;;;31.42;22.14
80853;BME280;70270;43.434;28.338;2023-10-08T14:15:19;99497.91;;;30.95;22.65
80853;BME280;70270;43.434;28.338;2023-10-08T14:18:07;99493.72;;;30.64;22.95
80853;BME280;70270;43.434;28.338;2023-10-08T14:20:52;99506.19;;;30.79;22.96
80853;BME280;70270;43.434;28.338;2023-10-08T14:23:38;99483.47;;;30.81;23.33
80853;BME280;70270;43.434;28.338;2023-10-08T14:26:23;99507.59;;;31.09;23.21
80853;BME280;70270;43.434;28.338;2023-10-08T14:29:09;99518.00;;;31.09;23.22
80853;BME280;70270;43.434;28.338;2023-10-08T14:32:01;99506.78;;;30.85;23.43
80853;BME280;70270;43.434;28.338;2023-10-08T14:34:46;99436.81;;;30.36;23.34
80853;BME280;70270;43.434;28.338;2023-10-08T14:37:30;99520.91;;;31.00;23.30
80853;BME280;70270;43.434;28.338;2023-10-08T14:40:36;99504.78;;;31.09;23.07
80853;BME280;70270;43.434;28.338;2023-10-08T14:43:39;99503.06;;;30.69;23.76